Springfield Branson National Airport
KSGF : now visible

Airfield :











YOU CAN JOIN US ON...

 
LOGIN :

Register | Disclaimer

   EN    FR    IT 

 









Legend :    VFR   Marginal VFR   IFR   Intensive IFR   Very Intensive IFR
Visi :
Ceiling :
>= 8 km
>= 3000ft
5 to 8 km
1000 to 3000 ft
1500m to 5 km
500 to 1000 ft
800 to 1500m
200 to 500 ft
< 800m
< 200 ft
Symbols :   Thunderstorms  Fog  Heavy snow  Heavy precipitations  Wind > 20 kt






- Airport Elevation : 1268 ft
- IATA code : SGF


KSGF - Springfield Branson National

CURRENT METAR :
  • 241652Z AUTO 11009KT 10SM BKN010 OVC019 17/14 A2993 RMK AO2 CIG 009V013 SLP129 T01670144

EXPIRED METARs :
  • 241552Z AUTO 11012KT 10SM OVC010 16/14 A2994 RMK AO2 SLP132 T01610139
  • 241513Z AUTO 10009KT 10SM OVC009 16/13 A2994 RMK AO2 T01560133
  • 241452Z AUTO 11011KT 9SM OVC010 15/13 A2996 RMK AO2 SLP139 T01500133 58018

TAF KSGF
Valid from the 24 at 18:00 until the 25 at 18:00 UTC


241729Z 2418/2518 12010G18KT P6SM OVC010
FM242000 12011G19KT 5SM BR VCTS OVC010CB
TEMPO 2422/2424 2SM -SHRA BR OVC007
FM250000 13012KT 4SM -TSRA BR OVC009CB
FM250400 15011KT 5SM SHRA BR OVC007
PROB30 2504/2510 4SM TSRA BR OVC005CB
FM251000 15009KT 6SM -SHRA BR OVC012
PROB30 2515/2518 4SM TSRA BR OVC015CB
KZKC FIR / North America



MET'MAP, your aeronautical weather chart ! - Copyright ORBIFLY December 2007 - Disclaimer

ORBIFLY MET'MAP TEAM :

Programming & Development : Alexandra Zaïnal
Original concept : Baudouin d'Aumeries
Technical & hardware support : Manuel Goepfert
Assistance : Marc-Olivier Méhu

Contact : metmap@orbifly.com




SOURCES & CREDITS :

   NOAA       Earth
Advisory